Time;durP1;ratioP1;P1;durP2;ratioP2;P2;SDS_P1;SDS_P2;PMS_P1;PMS_P2;Temp;Humidity;BMP_temperature;BMP_pressure;BME280_temperature;BME280_humidity;BME280_pressure;Samples;Min_cycle;Max_cycle;Signal;HPM_P1;HPM_P2
2022/11/11 00:01:39;;;;;;;;;;;22.10;99.90;;;;;;5079001;28;20357;-69
2022/11/11 00:04:05;;;;;;;;;;;22.20;99.90;;;;;;5096795;28;19911;-70
2022/11/11 00:06:32;;;;;;;;;;;22.20;99.90;;;;;;5097461;28;19943;-69
2022/11/11 00:08:59;;;;;;;;;;;22.40;99.90;;;;;;5096433;28;19977;-69
2022/11/11 00:11:26;;;;;;;;;;;22.50;99.90;;;;;;5096712;28;19957;-70
2022/11/11 00:13:53;;;;;;;;;;;22.50;99.90;;;;;;5096560;28;19915;-68
2022/11/11 00:16:20;;;;;;;;;;;22.60;99.90;;;;;;5096337;28;19920;-68
2022/11/11 00:27:09;;;;;;;;;;;22.50;99.90;;;;;;5096355;28;19914;-70
2022/11/11 00:29:37;;;;;;;;;;;22.50;99.90;;;;;;5096158;28;19908;-70
2022/11/11 00:32:22;;;;;;;;;;;22.50;99.90;;;;;;5096110;28;19916;-70
2022/11/11 00:37:35;;;;;;;;;;;22.30;99.90;;;;;;5096010;28;19962;-70
2022/11/11 00:40:01;;;;;;;;;;;22.20;99.90;;;;;;5096156;28;20239;-71
2022/11/11 00:42:28;;;;;;;;;;;22.20;99.90;;;;;;5095805;28;19908;-70
2022/11/11 00:44:55;;;;;;;;;;;22.00;99.90;;;;;;5095522;28;19908;-70
2022/11/11 00:52:54;;;;;;;;;;;22.20;99.90;;;;;;5095811;28;19953;-70
2022/11/11 00:55:21;;;;;;;;;;;22.30;99.90;;;;;;5095550;28;19920;-71
2022/11/11 00:57:48;;;;;;;;;;;22.80;99.90;;;;;;5095655;28;20278;-70
2022/11/11 01:00:15;;;;;;;;;;;23.40;99.90;;;;;;5095475;28;20241;-71
2022/11/11 01:02:41;;;;;;;;;;;24.00;99.90;;;;;;5094890;28;19908;-70
2022/11/11 01:05:08;;;;;;;;;;;24.50;99.90;;;;;;5095502;28;20015;-70
2022/11/11 01:07:35;;;;;;;;;;;24.90;99.90;;;;;;5095534;28;19908;-68
2022/11/11 01:10:01;;;;;;;;;;;25.10;99.90;;;;;;5095645;28;19919;-69
2022/11/11 01:12:28;;;;;;;;;;;25.10;99.90;;;;;;5095391;28;19915;-70
2022/11/11 01:14:55;;;;;;;;;;;24.80;99.90;;;;;;5095345;28;19916;-71
2022/11/11 01:17:21;;;;;;;;;;;24.20;99.90;;;;;;5095464;28;19920;-70
2022/11/11 01:19:48;;;;;;;;;;;23.60;99.90;;;;;;5095303;28;19962;-72
2022/11/11 01:22:14;;;;;;;;;;;23.30;99.90;;;;;;5095190;28;19915;-71
2022/11/11 01:24:41;;;;;;;;;;;23.50;99.90;;;;;;5095177;28;19995;-71
2022/11/11 01:27:08;;;;;;;;;;;24.10;99.90;;;;;;5094913;28;19915;-71
2022/11/11 01:29:35;;;;;;;;;;;24.70;99.90;;;;;;5095277;28;19908;-71
2022/11/11 01:32:01;;;;;;;;;;;24.80;99.90;;;;;;5095041;28;19915;-69
2022/11/11 01:34:28;;;;;;;;;;;24.40;99.90;;;;;;5095051;28;19908;-71
2022/11/11 01:36:55;;;;;;;;;;;24.00;99.90;;;;;;5094515;28;19916;-70
2022/11/11 01:39:21;;;;;;;;;;;23.90;99.90;;;;;;5094983;28;20322;-71
2022/11/11 01:41:48;;;;;;;;;;;23.60;99.90;;;;;;5094505;28;19959;-71
2022/11/11 01:44:15;;;;;;;;;;;23.50;99.90;;;;;;5094876;28;19916;-71
2022/11/11 01:46:53;;;;;;;;;;;23.50;99.90;;;;;;5094660;28;19908;-71
2022/11/11 01:49:38;;;;;;;;;;;23.40;99.90;;;;;;5094775;28;20314;-71
2022/11/11 01:52:05;;;;;;;;;;;23.30;99.90;;;;;;5094806;28;19919;-71
2022/11/11 01:54:47;;;;;;;;;;;23.20;99.90;;;;;;5094336;28;19920;-69
2022/11/11 01:57:29;;;;;;;;;;;22.90;99.90;;;;;;5094189;28;20007;-71
2022/11/11 02:00:01;;;;;;;;;;;22.90;99.90;;;;;;5094379;28;19953;-71
2022/11/11 02:02:32;;;;;;;;;;;22.90;99.90;;;;;;5094564;28;20347;-71
2022/11/11 02:07:45;;;;;;;;;;;22.70;99.90;;;;;;5094698;28;19915;-70
2022/11/11 02:10:11;;;;;;;;;;;22.40;99.90;;;;;;5094178;28;19909;-70
2022/11/11 02:15:25;;;;;;;;;;;22.50;99.90;;;;;;5052351;28;19908;-70
2022/11/11 02:17:51;;;;;;;;;;;22.60;99.90;;;;;;5094057;28;20011;-71
2022/11/11 02:20:20;;;;;;;;;;;22.60;99.90;;;;;;5094200;28;19961;-71
2022/11/11 02:22:46;;;;;;;;;;;22.70;99.90;;;;;;5093967;28;20316;-70
2022/11/11 02:25:15;;;;;;;;;;;22.70;99.90;;;;;;5094120;28;19991;-70
2022/11/11 02:27:44;;;;;;;;;;;22.80;99.90;;;;;;5093900;28;20010;-70
2022/11/11 02:30:14;;;;;;;;;;;22.80;99.90;;;;;;5093761;28;19915;-70
2022/11/11 02:32:44;;;;;;;;;;;22.70;99.90;;;;;;5093826;28;19908;-71
2022/11/11 02:35:13;;;;;;;;;;;22.70;99.90;;;;;;5093822;28;19908;-71
2022/11/11 02:37:41;;;;;;;;;;;22.60;99.90;;;;;;5093929;28;19920;-70
2022/11/11 02:40:08;;;;;;;;;;;22.50;99.90;;;;;;5093879;28;20272;-71
2022/11/11 02:42:35;;;;;;;;;;;22.40;99.90;;;;;;5093672;28;20381;-71
2022/11/11 02:45:02;;;;;;;;;;;22.30;99.90;;;;;;5093655;28;19908;-71
2022/11/11 02:47:28;;;;;;;;;;;22.30;99.90;;;;;;5093744;28;19908;-70
2022/11/11 02:49:55;;;;;;;;;;;22.30;99.90;;;;;;5093731;28;19908;-71
2022/11/11 02:52:22;;;;;;;;;;;22.20;99.90;;;;;;5093618;28;19961;-71
2022/11/11 02:54:48;;;;;;;;;;;22.20;99.90;;;;;;5093325;28;19980;-72
2022/11/11 02:57:15;;;;;;;;;;;22.20;99.90;;;;;;5093305;28;20031;-71
2022/11/11 02:59:42;;;;;;;;;;;22.20;99.90;;;;;;5093550;28;19908;-70
2022/11/11 03:02:09;;;;;;;;;;;22.10;99.90;;;;;;5093117;28;19908;-70
2022/11/11 03:04:37;;;;;;;;;;;22.10;99.90;;;;;;5093458;28;19958;-71
2022/11/11 03:07:04;;;;;;;;;;;22.20;99.90;;;;;;5093277;28;19995;-71
2022/11/11 03:09:31;;;;;;;;;;;22.30;99.90;;;;;;5093192;28;19908;-70
2022/11/11 03:11:58;;;;;;;;;;;22.40;99.90;;;;;;5093455;28;19916;-70
2022/11/11 03:14:25;;;;;;;;;;;22.40;99.90;;;;;;5093398;28;19908;-71
2022/11/11 03:19:36;;;;;;;;;;;22.50;99.90;;;;;;5093835;28;19953;-71
2022/11/11 03:22:03;;;;;;;;;;;22.60;99.90;;;;;;5093317;28;20370;-72
2022/11/11 03:27:14;;;;;;;;;;;22.50;99.90;;;;;;5097745;28;19915;-71
2022/11/11 03:29:41;;;;;;;;;;;22.40;99.90;;;;;;5097253;28;20441;-71
2022/11/11 03:32:09;;;;;;;;;;;22.40;99.90;;;;;;5097259;28;20270;-71
2022/11/11 03:34:35;;;;;;;;;;;22.40;99.90;;;;;;5097345;28;20411;-71
2022/11/11 03:39:48;;;;;;;;;;;22.60;99.90;;;;;;5097699;28;19916;-71
2022/11/11 03:42:14;;;;;;;;;;;22.70;99.90;;;;;;5096920;28;19915;-71
2022/11/11 03:44:41;;;;;;;;;;;22.80;99.90;;;;;;5097076;28;19943;-71
2022/11/11 03:47:07;;;;;;;;;;;22.70;99.90;;;;;;5096704;28;20286;-71
2022/11/11 03:49:34;;;;;;;;;;;22.70;99.90;;;;;;5097020;28;20358;-71
2022/11/11 03:52:01;;;;;;;;;;;22.70;99.90;;;;;;5096968;28;19948;-70
2022/11/11 03:54:27;;;;;;;;;;;22.70;99.90;;;;;;5096823;28;19913;-69
2022/11/11 03:57:29;;;;;;;;;;;22.70;99.90;;;;;;5096235;28;19916;-71
2022/11/11 03:59:43;;;;;;;;;;;22.70;99.90;;;;;;5096690;28;19915;-71
2022/11/11 04:10:26;;;;;;;;;;;22.60;99.90;;;;;;5096928;28;19961;-71
2022/11/11 04:21:42;;;;;;;;;;;22.40;99.90;;;;;;5096729;28;19923;-71
2022/11/11 04:23:53;;;;;;;;;;;22.20;99.90;;;;;;5096819;28;19915;-71
2022/11/11 04:26:20;;;;;;;;;;;22.20;99.90;;;;;;5096143;28;20270;-70
2022/11/11 04:31:31;;;;;;;;;;;22.00;99.90;;;;;;5096559;28;19931;-68
2022/11/11 04:33:58;;;;;;;;;;;22.00;99.90;;;;;;5078583;28;19909;-68
2022/11/11 04:36:25;;;;;;;;;;;22.00;99.90;;;;;;5054636;28;19913;-69
2022/11/11 04:41:36;;;;;;;;;;;22.10;99.90;;;;;;5055645;28;19963;-69
2022/11/11 04:46:48;;;;;;;;;;;21.80;99.90;;;;;;5055848;28;19916;-67
2022/11/11 04:49:14;;;;;;;;;;;21.80;99.90;;;;;;5055621;28;19909;-67
2022/11/11 04:54:25;;;;;;;;;;;21.80;99.90;;;;;;5059730;28;20424;-69
2022/11/11 04:56:53;;;;;;;;;;;21.70;99.90;;;;;;5074971;28;20007;-66
2022/11/11 04:59:20;;;;;;;;;;;21.70;99.90;;;;;;5075496;28;19923;-70
2022/11/11 05:04:31;;;;;;;;;;;21.60;99.90;;;;;;5075488;28;19915;-71
2022/11/11 05:09:42;;;;;;;;;;;21.50;99.90;;;;;;5075131;28;20003;-70
2022/11/11 05:12:09;;;;;;;;;;;21.50;99.90;;;;;;5075070;28;19912;-71
2022/11/11 05:22:50;;;;;;;;;;;21.40;99.90;;;;;;5066685;28;20033;-68
2022/11/11 05:25:25;;;;;;;;;;;21.40;99.90;;;;;;5066511;28;19927;-68
2022/11/11 05:27:53;;;;;;;;;;;21.40;99.90;;;;;;5066408;28;20366;-67
2022/11/11 05:30:20;;;;;;;;;;;21.30;99.90;;;;;;5066483;28;20764;-67
2022/11/11 05:32:47;;;;;;;;;;;21.10;99.90;;;;;;5065636;28;20783;-70
2022/11/11 05:35:14;;;;;;;;;;;21.00;99.90;;;;;;5066134;28;19912;-67
2022/11/11 05:37:41;;;;;;;;;;;20.70;99.90;;;;;;5065932;28;19920;-72
2022/11/11 05:40:08;;;;;;;;;;;20.50;99.90;;;;;;5065903;28;19952;-69
2022/11/11 05:42:35;;;;;;;;;;;20.30;99.90;;;;;;5066257;28;20389;-70
2022/11/11 05:45:02;;;;;;;;;;;20.20;99.90;;;;;;5065765;28;19912;-70
2022/11/11 05:47:29;;;;;;;;;;;20.10;99.90;;;;;;5065500;28;19962;-69
2022/11/11 05:49:55;;;;;;;;;;;20.00;99.90;;;;;;5065973;28;20580;-66
2022/11/11 05:52:22;;;;;;;;;;;20.00;99.90;;;;;;5065424;28;19916;-70
2022/11/11 05:54:49;;;;;;;;;;;20.00;99.90;;;;;;5065408;28;19963;-68
2022/11/11 05:57:15;;;;;;;;;;;20.00;99.90;;;;;;5065640;28;20380;-69
2022/11/11 05:59:42;;;;;;;;;;;20.00;99.90;;;;;;5065577;28;19913;-69
2022/11/11 06:02:09;;;;;;;;;;;20.00;99.90;;;;;;5065735;28;19916;-69
2022/11/11 06:04:36;;;;;;;;;;;20.10;99.90;;;;;;5065698;28;19912;-69
2022/11/11 06:07:02;;;;;;;;;;;20.10;99.90;;;;;;5065348;28;19955;-70
2022/11/11 06:09:29;;;;;;;;;;;20.20;99.90;;;;;;5065659;28;19912;-70
2022/11/11 06:11:55;;;;;;;;;;;20.20;99.90;;;;;;5065235;28;19948;-70
2022/11/11 06:14:22;;;;;;;;;;;20.30;99.90;;;;;;5065237;28;19919;-72
2022/11/11 06:16:49;;;;;;;;;;;20.40;99.90;;;;;;5065164;28;19920;-69
2022/11/11 06:19:15;;;;;;;;;;;20.50;99.90;;;;;;5065411;28;19920;-69
2022/11/11 06:21:57;;;;;;;;;;;20.50;99.90;;;;;;5065124;28;19913;-69
2022/11/11 06:24:24;;;;;;;;;;;20.50;99.90;;;;;;5065299;28;20021;-69
2022/11/11 06:26:50;;;;;;;;;;;20.40;99.90;;;;;;5064296;28;20346;-70
2022/11/11 06:29:17;;;;;;;;;;;20.50;99.90;;;;;;5064991;28;19913;-70
2022/11/11 06:31:44;;;;;;;;;;;20.50;99.90;;;;;;5065127;28;19998;-70
2022/11/11 06:34:11;;;;;;;;;;;20.60;99.90;;;;;;5065029;28;19912;-68
2022/11/11 06:36:37;;;;;;;;;;;20.70;99.90;;;;;;5065243;28;19920;-70
2022/11/11 06:39:04;;;;;;;;;;;20.70;99.90;;;;;;5064732;28;19916;-70
2022/11/11 06:41:31;;;;;;;;;;;20.80;99.90;;;;;;5064992;28;19935;-69
2022/11/11 06:43:57;;;;;;;;;;;20.90;99.90;;;;;;5064946;28;20413;-70
2022/11/11 06:46:25;;;;;;;;;;;21.00;99.90;;;;;;5064724;28;19920;-67
2022/11/11 06:48:52;;;;;;;;;;;21.10;99.90;;;;;;5064821;28;19913;-69
2022/11/11 06:51:18;;;;;;;;;;;21.10;99.90;;;;;;5064717;28;19913;-66
2022/11/11 06:53:45;;;;;;;;;;;21.00;99.90;;;;;;5064844;28;20098;-67
2022/11/11 06:56:12;;;;;;;;;;;21.10;99.90;;;;;;5064472;28;19928;-67
2022/11/11 06:58:39;;;;;;;;;;;21.10;99.90;;;;;;5079354;28;19919;-69
2022/11/11 07:01:06;;;;;;;;;;;21.10;99.90;;;;;;5064430;28;19920;-67
2022/11/11 07:03:33;;;;;;;;;;;21.10;99.90;;;;;;5064663;28;19923;-68
2022/11/11 07:06:00;;;;;;;;;;;21.10;99.90;;;;;;5064390;28;20283;-67
2022/11/11 07:08:27;;;;;;;;;;;21.20;99.90;;;;;;5064519;28;20475;-66
2022/11/11 07:10:54;;;;;;;;;;;21.30;99.90;;;;;;5064653;28;19912;-69
2022/11/11 07:13:20;;;;;;;;;;;21.30;99.90;;;;;;5064748;28;19920;-69
2022/11/11 07:15:47;;;;;;;;;;;21.30;99.90;;;;;;5064560;28;19962;-68
2022/11/11 07:18:14;;;;;;;;;;;21.30;99.90;;;;;;5064536;28;19985;-68
2022/11/11 07:20:41;;;;;;;;;;;21.30;99.90;;;;;;5064412;28;19939;-66
2022/11/11 07:23:08;;;;;;;;;;;21.40;99.90;;;;;;5064286;28;19965;-70
2022/11/11 07:25:34;;;;;;;;;;;21.40;99.90;;;;;;5064520;28;19913;-70
2022/11/11 07:28:01;;;;;;;;;;;21.50;99.90;;;;;;5060924;28;19912;-70
2022/11/11 07:30:29;;;;;;;;;;;21.50;99.90;;;;;;4985276;28;20336;-72
2022/11/11 07:32:55;;;;;;;;;;;21.60;99.90;;;;;;4983117;28;19918;-68
2022/11/11 07:35:22;;;;;;;;;;;21.60;99.90;;;;;;4985393;28;19913;-68
2022/11/11 07:37:49;;;;;;;;;;;21.60;99.90;;;;;;4990889;28;20471;-69
2022/11/11 07:40:16;;;;;;;;;;;21.50;99.90;;;;;;5004619;28;19918;-69
2022/11/11 07:42:43;;;;;;;;;;;21.50;99.90;;;;;;5005031;28;20034;-68
2022/11/11 07:45:11;;;;;;;;;;;21.50;99.90;;;;;;5004344;28;20348;-69
2022/11/11 07:47:38;;;;;;;;;;;21.50;99.90;;;;;;5004805;28;19914;-67
2022/11/11 07:50:06;;;;;;;;;;;21.50;99.90;;;;;;5004992;28;19960;-67
2022/11/11 07:52:33;;;;;;;;;;;21.50;99.90;;;;;;5004652;28;20389;-67
2022/11/11 07:55:00;;;;;;;;;;;21.50;99.90;;;;;;5013300;28;19929;-66
2022/11/11 07:57:26;;;;;;;;;;;21.50;99.90;;;;;;5023663;28;19921;-66
2022/11/11 07:59:53;;;;;;;;;;;21.50;99.90;;;;;;5024154;28;19913;-66
2022/11/11 08:02:20;;;;;;;;;;;21.40;99.90;;;;;;5035380;28;19921;-65
2022/11/11 08:04:47;;;;;;;;;;;21.40;99.90;;;;;;5050238;28;19920;-66
2022/11/11 08:07:13;;;;;;;;;;;21.30;99.90;;;;;;5049714;28;19963;-67
2022/11/11 08:09:40;;;;;;;;;;;21.30;99.90;;;;;;5050180;28;19919;-66
2022/11/11 08:14:52;;;;;;;;;;;21.30;99.90;;;;;;5067992;28;20003;-66
2022/11/11 08:17:19;;;;;;;;;;;21.20;99.90;;;;;;5076072;28;19917;-69
2022/11/11 08:19:46;;;;;;;;;;;21.30;99.90;;;;;;5054471;28;20004;-70
2022/11/11 08:22:12;;;;;;;;;;;21.20;99.90;;;;;;5055959;28;19913;-66
2022/11/11 08:24:39;;;;;;;;;;;21.30;99.90;;;;;;5049900;28;19916;-67
2022/11/11 08:27:06;;;;;;;;;;;21.30;99.90;;;;;;5036089;28;19917;-68
2022/11/11 08:29:32;;;;;;;;;;;21.30;99.90;;;;;;5042953;28;20571;-67
2022/11/11 08:31:59;;;;;;;;;;;21.30;99.90;;;;;;5055653;28;20359;-66
2022/11/11 08:34:26;;;;;;;;;;;21.20;99.90;;;;;;5057105;28;19921;-66
2022/11/11 08:36:52;;;;;;;;;;;21.20;99.90;;;;;;5060655;28;19917;-67
2022/11/11 08:39:19;;;;;;;;;;;21.20;99.90;;;;;;5055614;28;20440;-66
2022/11/11 08:41:46;;;;;;;;;;;21.30;99.90;;;;;;5055677;28;19909;-66
2022/11/11 08:44:13;;;;;;;;;;;21.30;99.90;;;;;;5055880;28;19925;-66
2022/11/11 08:46:40;;;;;;;;;;;21.30;99.90;;;;;;5054504;28;20001;-67
2022/11/11 08:49:07;;;;;;;;;;;21.30;99.90;;;;;;5053828;28;19913;-67
2022/11/11 08:51:34;;;;;;;;;;;21.30;99.90;;;;;;5055474;28;19916;-66
2022/11/11 08:54:01;;;;;;;;;;;21.20;99.90;;;;;;5055120;28;19919;-68
2022/11/11 08:56:27;;;;;;;;;;;21.20;99.90;;;;;;5055412;28;19917;-67
2022/11/11 08:58:54;;;;;;;;;;;21.20;99.90;;;;;;5055447;28;19954;-67
2022/11/11 09:01:20;;;;;;;;;;;21.20;99.90;;;;;;5055516;28;19916;-67
2022/11/11 09:03:47;;;;;;;;;;;21.10;99.90;;;;;;5055232;28;20239;-67
2022/11/11 09:06:14;;;;;;;;;;;21.10;99.90;;;;;;5048528;28;19909;-67
2022/11/11 09:08:41;;;;;;;;;;;21.10;99.90;;;;;;5035391;28;19963;-67
2022/11/11 09:11:08;;;;;;;;;;;21.10;99.90;;;;;;5035041;28;20279;-67
2022/11/11 09:13:35;;;;;;;;;;;21.00;99.90;;;;;;5035431;28;19916;-67
2022/11/11 09:16:01;;;;;;;;;;;21.00;99.90;;;;;;5035382;28;19909;-67
2022/11/11 09:18:30;;;;;;;;;;;20.90;99.90;;;;;;5035156;28;20396;-67
2022/11/11 09:20:58;;;;;;;;;;;20.90;99.90;;;;;;5034859;28;20000;-69
2022/11/11 09:23:25;;;;;;;;;;;20.80;99.90;;;;;;5034724;28;19909;-67
2022/11/11 09:25:52;;;;;;;;;;;20.80;99.90;;;;;;5034986;28;19916;-67
2022/11/11 09:28:18;;;;;;;;;;;20.80;99.90;;;;;;5035167;28;20395;-67
2022/11/11 09:30:45;;;;;;;;;;;20.70;99.90;;;;;;5034879;28;20360;-67
2022/11/11 09:33:15;;;;;;;;;;;20.80;99.90;;;;;;5034952;28;19971;-67
2022/11/11 09:35:41;;;;;;;;;;;20.70;99.90;;;;;;5034808;28;19909;-66
2022/11/11 09:38:08;;;;;;;;;;;20.60;99.90;;;;;;5035024;28;20024;-67
2022/11/11 09:40:41;;;;;;;;;;;20.60;99.90;;;;;;5034656;28;19916;-67
2022/11/11 09:43:23;;;;;;;;;;;20.60;99.90;;;;;;5044210;28;19909;-67
2022/11/11 09:45:59;;;;;;;;;;;20.60;99.90;;;;;;5054530;28;19908;-67
2022/11/11 09:48:35;;;;;;;;;;;20.50;99.90;;;;;;5054432;28;20375;-70
2022/11/11 09:51:02;;;;;;;;;;;20.50;99.90;;;;;;5054236;28;19988;-67
2022/11/11 09:53:29;;;;;;;;;;;20.50;99.90;;;;;;5035300;28;19916;-67
2022/11/11 09:56:22;;;;;;;;;;;20.50;99.90;;;;;;5034160;28;19928;-68
2022/11/11 09:58:51;;;;;;;;;;;20.50;99.90;;;;;;5032049;28;19975;-67
2022/11/11 10:01:28;;;;;;;;;;;20.50;99.90;;;;;;5017001;28;19909;-67
2022/11/11 10:03:58;;;;;;;;;;;20.40;99.90;;;;;;5052573;28;19913;-68
2022/11/11 10:06:27;;;;;;;;;;;20.40;99.90;;;;;;5054086;28;19909;-66
2022/11/11 10:09:01;;;;;;;;;;;20.40;99.90;;;;;;5053790;28;20000;-68
2022/11/11 10:11:46;;;;;;;;;;;20.40;99.90;;;;;;5053918;28;19913;-67
2022/11/11 10:14:13;;;;;;;;;;;20.40;99.90;;;;;;5054191;28;19909;-66
2022/11/11 10:17:06;;;;;;;;;;;20.30;99.90;;;;;;5046445;28;20024;-67
2022/11/11 10:19:33;;;;;;;;;;;20.30;99.90;;;;;;5053616;28;20404;-68
2022/11/11 10:22:01;;;;;;;;;;;20.30;99.90;;;;;;5054143;28;19916;-71
2022/11/11 10:24:29;;;;;;;;;;;20.20;99.90;;;;;;5035465;28;20469;-67
2022/11/11 10:26:58;;;;;;;;;;;20.20;99.90;;;;;;5055186;28;19959;-67
2022/11/11 10:29:26;;;;;;;;;;;20.20;99.90;;;;;;5053347;28;19920;-67
2022/11/11 10:32:05;;;;;;;;;;;20.20;99.90;;;;;;5053608;28;19918;-67
2022/11/11 10:34:32;;;;;;;;;;;20.20;99.90;;;;;;5054107;28;20351;-68
2022/11/11 10:37:00;;;;;;;;;;;20.20;99.90;;;;;;5054947;28;19967;-67
2022/11/11 10:39:38;;;;;;;;;;;20.20;99.90;;;;;;5055668;28;19909;-67
2022/11/11 10:42:08;;;;;;;;;;;20.20;99.90;;;;;;5056124;28;19917;-66
2022/11/11 10:44:35;;;;;;;;;;;20.20;99.90;;;;;;5056570;28;20011;-66
2022/11/11 10:47:13;;;;;;;;;;;20.10;99.90;;;;;;5067478;28;19913;-69
2022/11/11 10:49:44;;;;;;;;;;;20.10;99.90;;;;;;5061593;28;20371;-69
2022/11/11 10:52:19;;;;;;;;;;;20.10;99.90;;;;;;5065177;28;19920;-69
2022/11/11 10:54:45;;;;;;;;;;;20.10;99.90;;;;;;5064235;28;19921;-68
2022/11/11 10:57:21;;;;;;;;;;;20.10;99.90;;;;;;5059572;28;19921;-69
2022/11/11 10:59:55;;;;;;;;;;;20.10;99.90;;;;;;5055201;28;19959;-69
2022/11/11 11:02:29;;;;;;;;;;;20.00;99.90;;;;;;5055763;28;19913;-69
2022/11/11 11:05:01;;;;;;;;;;;20.00;99.90;;;;;;5054920;28;20286;-70
2022/11/11 11:07:29;;;;;;;;;;;20.00;99.90;;;;;;5055424;28;19994;-69
2022/11/11 11:10:04;;;;;;;;;;;20.00;99.90;;;;;;5055999;28;19909;-69
2022/11/11 11:12:39;;;;;;;;;;;19.90;99.90;;;;;;5058395;28;19920;-69
2022/11/11 11:15:09;;;;;;;;;;;20.00;99.90;;;;;;5056359;28;19913;-70
2022/11/11 11:17:39;;;;;;;;;;;19.90;99.90;;;;;;5056562;28;19916;-68
2022/11/11 11:20:07;;;;;;;;;;;19.90;99.90;;;;;;5057001;28;19909;-67
2022/11/11 11:22:48;;;;;;;;;;;19.90;99.90;;;;;;5055256;28;20398;-70
2022/11/11 11:25:15;;;;;;;;;;;19.90;99.90;;;;;;5054262;28;19913;-69
2022/11/11 11:27:42;;;;;;;;;;;19.90;99.90;;;;;;5055227;28;19913;-69
2022/11/11 11:30:16;;;;;;;;;;;19.90;99.90;;;;;;5055523;28;19916;-69
2022/11/11 11:32:55;;;;;;;;;;;19.90;99.90;;;;;;5052883;28;19908;-69
2022/11/11 11:35:41;;;;;;;;;;;19.90;99.90;;;;;;5035609;28;19939;-69
2022/11/11 11:38:08;;;;;;;;;;;19.90;99.90;;;;;;5041260;28;19917;-68
2022/11/11 11:40:46;;;;;;;;;;;19.90;99.90;;;;;;5054827;28;19909;-69
2022/11/11 11:43:30;;;;;;;;;;;19.90;99.90;;;;;;5054634;28;19920;-70
2022/11/11 11:46:00;;;;;;;;;;;19.90;99.90;;;;;;5057212;28;19915;-68
2022/11/11 11:48:30;;;;;;;;;;;19.90;99.90;;;;;;5058175;28;19913;-70
2022/11/11 11:51:12;;;;;;;;;;;19.80;99.90;;;;;;5062528;28;19935;-70
2022/11/11 11:53:45;;;;;;;;;;;19.80;99.90;;;;;;5066639;28;19913;-70
2022/11/11 11:56:19;;;;;;;;;;;19.80;99.90;;;;;;5059224;28;19920;-70
2022/11/11 11:59:00;;;;;;;;;;;19.80;99.90;;;;;;5060084;28;20351;-69
2022/11/11 12:01:30;;;;;;;;;;;19.80;99.90;;;;;;5058320;28;19951;-70
2022/11/11 12:04:35;;;;;;;;;;;19.80;99.90;;;;;;5056337;28;19921;-71
2022/11/11 12:07:04;;;;;;;;;;;19.80;99.90;;;;;;5017395;28;19910;-71
2022/11/11 12:09:40;;;;;;;;;;;19.70;99.90;;;;;;5037090;28;20352;-71
2022/11/11 12:12:25;;;;;;;;;;;19.70;99.90;;;;;;5047434;28;19925;-70
2022/11/11 12:15:10;;;;;;;;;;;19.70;99.90;;;;;;5059364;28;20018;-71
2022/11/11 12:17:55;;;;;;;;;;;19.70;99.90;;;;;;5059627;28;19920;-70
2022/11/11 12:20:45;;;;;;;;;;;19.70;99.90;;;;;;5057441;28;19920;-70
2022/11/11 12:23:11;;;;;;;;;;;19.70;99.90;;;;;;5048485;28;19916;-70
2022/11/11 12:25:44;;;;;;;;;;;19.70;99.90;;;;;;5062343;28;19913;-71
2022/11/11 12:28:29;;;;;;;;;;;19.70;99.90;;;;;;5061163;28;19992;-71
2022/11/11 12:31:15;;;;;;;;;;;19.70;99.90;;;;;;5057501;28;19913;-70
2022/11/11 12:33:42;;;;;;;;;;;19.70;99.90;;;;;;5066839;28;19912;-70
2022/11/11 12:36:27;;;;;;;;;;;19.60;99.90;;;;;;5072789;28;19944;-69
2022/11/11 12:38:53;;;;;;;;;;;19.60;99.90;;;;;;5076657;28;19982;-69
2022/11/11 12:41:20;;;;;;;;;;;19.60;99.90;;;;;;5077769;28;19912;-68
2022/11/11 12:43:47;;;;;;;;;;;19.60;99.90;;;;;;5061044;28;19955;-70
2022/11/11 12:46:22;;;;;;;;;;;19.60;99.90;;;;;;5055306;28;20420;-71
2022/11/11 12:49:08;;;;;;;;;;;19.60;99.90;;;;;;5055675;28;20000;-70
2022/11/11 12:51:37;;;;;;;;;;;19.60;99.90;;;;;;5054933;28;19917;-70
2022/11/11 12:54:21;;;;;;;;;;;19.60;99.90;;;;;;5055474;28;19915;-70
2022/11/11 12:56:53;;;;;;;;;;;19.60;99.90;;;;;;5052668;28;19921;-70
2022/11/11 12:59:31;;;;;;;;;;;19.60;99.90;;;;;;5055701;28;20291;-70
2022/11/11 13:02:10;;;;;;;;;;;19.60;99.90;;;;;;5054693;28;20275;-70
2022/11/11 13:04:39;;;;;;;;;;;19.50;99.90;;;;;;5055682;28;19916;-70
2022/11/11 13:07:21;;;;;;;;;;;19.50;99.90;;;;;;5053914;28;19920;-70
2022/11/11 13:10:01;;;;;;;;;;;19.50;99.90;;;;;;5035132;28;19909;-70
2022/11/11 13:12:34;;;;;;;;;;;19.40;99.90;;;;;;5038015;28;19912;-70
2022/11/11 13:15:18;;;;;;;;;;;19.40;99.90;;;;;;5055238;28;19917;-70
2022/11/11 13:17:45;;;;;;;;;;;19.50;99.90;;;;;;5055199;28;19921;-70
2022/11/11 13:20:30;;;;;;;;;;;19.50;99.90;;;;;;5054359;28;20302;-70
2022/11/11 13:22:56;;;;;;;;;;;19.50;99.90;;;;;;5053964;28;19913;-69
2022/11/11 13:25:25;;;;;;;;;;;19.50;99.90;;;;;;5055165;28;20402;-71
2022/11/11 13:28:11;;;;;;;;;;;19.50;99.90;;;;;;5054286;28;19919;-70
2022/11/11 13:30:56;;;;;;;;;;;19.40;99.90;;;;;;5041095;28;20322;-70
2022/11/11 13:33:35;;;;;;;;;;;19.50;99.90;;;;;;5054184;28;19913;-70
2022/11/11 13:36:03;;;;;;;;;;;19.40;99.90;;;;;;5053754;28;20359;-69
2022/11/11 13:38:32;;;;;;;;;;;19.40;99.90;;;;;;5053814;28;19921;-70
2022/11/11 13:41:01;;;;;;;;;;;19.40;99.90;;;;;;5054558;28;19912;-70
2022/11/11 13:43:28;;;;;;;;;;;19.40;99.90;;;;;;5054121;28;19913;-70
2022/11/11 13:45:57;;;;;;;;;;;19.40;99.90;;;;;;5054844;28;20283;-71
2022/11/11 13:48:28;;;;;;;;;;;19.40;99.90;;;;;;5053968;28;19920;-71
2022/11/11 13:51:10;;;;;;;;;;;19.30;99.90;;;;;;5054368;28;19909;-70
2022/11/11 13:53:38;;;;;;;;;;;19.30;99.90;;;;;;5053898;28;19920;-70
2022/11/11 13:56:06;;;;;;;;;;;19.30;99.90;;;;;;5054477;28;20011;-71
2022/11/11 13:58:34;;;;;;;;;;;19.30;99.90;;;;;;5053721;28;19927;-70
2022/11/11 14:01:03;;;;;;;;;;;19.30;99.90;;;;;;5054323;28;19916;-69
2022/11/11 14:03:31;;;;;;;;;;;19.30;99.90;;;;;;5052929;28;19995;-69
2022/11/11 14:06:16;;;;;;;;;;;19.30;99.90;;;;;;5054030;28;20035;-70
2022/11/11 14:08:45;;;;;;;;;;;19.30;99.90;;;;;;5053109;28;19936;-70
2022/11/11 14:11:24;;;;;;;;;;;19.30;99.90;;;;;;5054294;28;20011;-70
2022/11/11 14:13:52;;;;;;;;;;;19.20;99.90;;;;;;5053317;28;19940;-71
2022/11/11 14:16:34;;;;;;;;;;;19.20;99.90;;;;;;5054061;28;19908;-71
2022/11/11 14:19:16;;;;;;;;;;;19.20;99.90;;;;;;5050894;28;19920;-70
2022/11/11 14:21:45;;;;;;;;;;;19.20;99.90;;;;;;5053464;28;19919;-70
2022/11/11 14:24:22;;;;;;;;;;;19.10;99.90;;;;;;5052646;28;19909;-67
2022/11/11 14:27:02;;;;;;;;;;;19.10;99.90;;;;;;5053134;28;19940;-70
2022/11/11 14:29:34;;;;;;;;;;;19.10;99.90;;;;;;5053231;28;19909;-70
2022/11/11 14:32:00;;;;;;;;;;;19.10;99.90;;;;;;5053169;28;19922;-71
2022/11/11 14:34:56;;;;;;;;;;;19.10;99.90;;;;;;5053871;28;19986;-70
2022/11/11 14:37:41;;;;;;;;;;;19.10;99.90;;;;;;5023118;28;19944;-70
2022/11/11 14:40:23;;;;;;;;;;;19.00;99.90;;;;;;5033245;28;19916;-71
2022/11/11 14:42:50;;;;;;;;;;;19.00;99.90;;;;;;5036854;28;19917;-71
2022/11/11 14:45:22;;;;;;;;;;;19.00;99.90;;;;;;5053755;28;19954;-70
2022/11/11 14:47:50;;;;;;;;;;;19.00;99.90;;;;;;5052377;28;19917;-70
2022/11/11 14:50:32;;;;;;;;;;;18.90;99.90;;;;;;5053652;28;19909;-69
2022/11/11 14:53:00;;;;;;;;;;;18.90;99.90;;;;;;5052297;28;19983;-66
2022/11/11 14:55:32;;;;;;;;;;;18.80;99.90;;;;;;5052651;28;19967;-68
2022/11/11 14:57:59;;;;;;;;;;;18.80;99.90;;;;;;5051597;28;20343;-70
2022/11/11 15:00:44;;;;;;;;;;;18.80;99.90;;;;;;5053635;28;19940;-69
2022/11/11 15:03:30;;;;;;;;;;;18.80;99.90;;;;;;5052452;28;19923;-70
2022/11/11 15:06:03;;;;;;;;;;;18.80;99.90;;;;;;5053142;28;20403;-67
2022/11/11 15:08:36;;;;;;;;;;;18.90;99.90;;;;;;5052200;28;19913;-67
2022/11/11 15:11:22;;;;;;;;;;;18.80;99.90;;;;;;5053063;28;19909;-67
2022/11/11 15:13:51;;;;;;;;;;;18.80;99.90;;;;;;5052460;28;19912;-67
2022/11/11 15:16:36;;;;;;;;;;;18.80;99.90;;;;;;5053315;28;19948;-66
2022/11/11 15:19:03;;;;;;;;;;;18.70;99.90;;;;;;5052243;28;19971;-67
2022/11/11 15:21:33;;;;;;;;;;;18.60;99.90;;;;;;5052769;28;19996;-67
2022/11/11 15:24:13;;;;;;;;;;;18.70;99.90;;;;;;5052393;28;19912;-67
2022/11/11 15:26:40;;;;;;;;;;;18.70;99.90;;;;;;5053218;28;19908;-67
2022/11/11 15:29:32;;;;;;;;;;;18.70;99.90;;;;;;5051154;28;19995;-67
2022/11/11 15:32:05;;;;;;;;;;;18.70;99.90;;;;;;5051123;28;20384;-68
2022/11/11 15:34:47;;;;;;;;;;;18.70;99.90;;;;;;5052235;28;19921;-68
2022/11/11 15:37:16;;;;;;;;;;;18.70;99.90;;;;;;5052941;28;19963;-67
2022/11/11 15:39:44;;;;;;;;;;;18.70;99.90;;;;;;5051469;28;19913;-67
2022/11/11 15:42:21;;;;;;;;;;;18.70;99.90;;;;;;5051253;28;19916;-67
2022/11/11 15:44:48;;;;;;;;;;;18.80;99.90;;;;;;5052805;28;19909;-67
2022/11/11 15:47:15;;;;;;;;;;;18.80;99.90;;;;;;5052326;28;20346;-67
2022/11/11 15:49:43;;;;;;;;;;;18.80;99.90;;;;;;5053093;28;20302;-66